createdAt,value
2023-03-10T00:00:31.382Z,9.3
2023-03-10T00:19:51.347Z,9.5
2023-03-10T00:39:12.371Z,9.6
2023-03-10T00:58:31.369Z,9.7
2023-03-10T01:17:51.278Z,9.7
2023-03-10T01:37:09.324Z,9.6
2023-03-10T01:56:28.527Z,9.7
2023-03-10T02:15:49.556Z,9.7
2023-03-10T02:35:09.756Z,9.8
2023-03-10T02:54:29.043Z,9.9
2023-03-10T03:13:48.767Z,9.8
2023-03-10T03:33:08.553Z,9.7
2023-03-10T03:52:27.133Z,9.5
2023-03-10T04:11:46.222Z,9.5
2023-03-10T04:31:05.857Z,9.5
2023-03-10T04:50:25.333Z,9.3
2023-03-10T05:09:45.525Z,9.3
2023-03-10T05:29:05.283Z,9
2023-03-10T05:48:25.670Z,9
2023-03-10T06:07:43.243Z,9
2023-03-10T06:27:03.807Z,8.9
2023-03-10T06:46:24.423Z,8.9
2023-03-10T07:05:44.474Z,8.9
2023-03-10T07:25:04.574Z,8.9
2023-03-10T07:44:24.389Z,9.1
2023-03-10T08:03:46.956Z,9.5
2023-03-10T08:23:08.757Z,10.1
2023-03-10T08:42:30.626Z,10.2
2023-03-10T09:01:51.506Z,10
2023-03-10T09:21:10.106Z,10.1
2023-03-10T09:40:30.939Z,10.3
2023-03-10T09:59:52.696Z,11
2023-03-10T10:19:14.609Z,10.6
2023-03-10T10:38:33.572Z,9.3
2023-03-10T10:57:54.095Z,9.7
2023-03-10T11:17:15.146Z,9.5
2023-03-10T11:36:57.236Z,8.9
2023-03-10T11:55:59.368Z,8
2023-03-10T12:15:16.997Z,9.1
2023-03-10T12:34:33.096Z,10.2
2023-03-10T12:53:51.734Z,9.8
2023-03-10T13:13:09.491Z,9.8
2023-03-10T13:32:34.945Z,10
2023-03-10T13:51:55.423Z,9.7
2023-03-10T14:11:14.403Z,9.9
2023-03-10T14:30:33.805Z,9.9
2023-03-10T14:49:53.340Z,9.4
2023-03-10T15:09:09.832Z,8.8
2023-03-10T15:28:27.111Z,8.3
2023-03-10T15:47:42.438Z,7.9
2023-03-10T16:06:58.565Z,7.4
2023-03-10T16:26:15.389Z,6.8
2023-03-10T16:45:33.891Z,6.5
2023-03-10T17:04:53.084Z,6.2
2023-03-10T17:24:10.832Z,5.7
2023-03-10T17:43:35.061Z,3.8
2023-03-10T18:02:41.418Z,3.2
2023-03-10T18:22:04.300Z,2.9
2023-03-10T18:41:24.201Z,2.9
2023-03-10T19:00:37.407Z,2.7
2023-03-10T19:19:55.933Z,2.5
2023-03-10T19:39:13.207Z,2.3
2023-03-10T19:58:32.126Z,2.1
2023-03-10T20:17:51.270Z,2.2
2023-03-10T20:37:09.902Z,2.1
2023-03-10T20:56:27.828Z,1.9
2023-03-10T21:15:45.382Z,2.2
2023-03-10T21:35:04.671Z,2.2
2023-03-10T21:54:23.838Z,2.2
2023-03-10T22:13:44.122Z,2.2
2023-03-10T22:33:03.118Z,2.1
2023-03-10T22:52:21.688Z,2
2023-03-10T23:11:41.301Z,2.1
2023-03-10T23:31:00.106Z,2
2023-03-10T23:50:18.885Z,1.8
